Time,TemperatureF,DewpointF,PressureIn,WindDirection,WindDirectionDegrees,WindSpeedMPH,WindSpeedGustMPH,Humidity,HourlyPrecipIn,Conditions,Clouds,dailyrainin,SoftwareType,DateUTC
2013-02-03 00:01:00,56.2,50.8,30.05,East,84,0.0,0.0,82,0.00,,,0.00,Wunderground PWS Mod,2013-02-03 05:01:00,
2013-02-03 00:06:00,56.2,50.8,30.05,N/A,-737280,0.0,0.0,82,0.00,,,0.00,Wunderground PWS Mod,2013-02-03 05:06:00,
2013-02-03 00:10:00,55.9,50.5,30.05,N/A,-737280,0.0,0.0,82,0.00,,,0.00,Wunderground PWS Mod,2013-02-03 05:10:00,
2013-02-03 00:11:00,55.9,50.5,30.05,East,84,0.0,0.0,82,0.00,,,0.00,Wunderground PWS Mod,2013-02-03 05:11:00,
2013-02-03 00:16:00,55.9,50.5,30.05,East,84,0.0,0.0,82,0.00,,,0.00,Wunderground PWS Mod,2013-02-03 05:16:00,
2013-02-03 00:21:00,55.9,50.5,30.04,East,84,0.0,0.0,82,0.00,,,0.00,Wunderground PWS Mod,2013-02-03 05:21:00,
2013-02-03 00:26:00,55.5,50.1,30.04,East,84,0.0,0.0,82,0.00,,,0.00,Wunderground PWS Mod,2013-02-03 05:26:00,
2013-02-03 00:30:00,55.4,50.0,30.03,N/A,-737280,0.0,0.0,82,0.00,,,0.00,Wunderground PWS Mod,2013-02-03 05:30:00,
2013-02-03 00:31:00,55.4,50.3,30.04,East,84,0.0,0.0,83,0.00,,,0.00,Wunderground PWS Mod,2013-02-03 05:31:00,
2013-02-03 00:36:00,55.4,50.3,30.03,East,84,0.0,0.0,83,0.00,,,0.00,Wunderground PWS Mod,2013-02-03 05:36:00,
2013-02-03 00:41:00,55.3,50.2,30.03,East,84,0.0,0.0,83,0.00,,,0.00,Wunderground PWS Mod,2013-02-03 05:41:00,
2013-02-03 00:46:00,55.4,50.3,30.03,East,84,0.0,0.0,83,0.00,,,0.00,Wunderground PWS Mod,2013-02-03 05:46:00,
2013-02-03 00:56:00,55.4,50.3,30.03,East,84,0.0,0.0,83,0.00,,,0.00,Wunderground PWS Mod,2013-02-03 05:56:00,
2013-02-03 01:01:00,55.0,49.9,30.03,East,84,0.0,0.0,83,0.00,,,0.00,Wunderground PWS Mod,2013-02-03 06:01:00,
2013-02-03 01:06:00,55.0,49.9,30.03,N/A,-737280,0.0,0.0,83,0.00,,,0.00,Wunderground PWS Mod,2013-02-03 06:06:00,
2013-02-03 01:10:00,55.0,50.3,30.03,N/A,-737280,0.0,0.0,84,0.00,,,0.00,Wunderground PWS Mod,2013-02-03 06:10:00,
2013-02-03 01:11:00,55.0,49.9,30.03,East,84,0.0,0.0,83,0.00,,,0.00,Wunderground PWS Mod,2013-02-03 06:11:00,
2013-02-03 01:16:00,54.9,49.8,30.03,East,84,0.0,0.0,83,0.00,,,0.00,Wunderground PWS Mod,2013-02-03 06:16:00,
2013-02-03 01:26:00,54.8,50.1,30.02,East,84,0.0,0.0,84,0.00,,,0.00,Wunderground PWS Mod,2013-02-03 06:26:00,
2013-02-03 01:30:00,54.6,49.9,30.02,N/A,-737280,0.0,0.0,84,0.00,,,0.00,Wunderground PWS Mod,2013-02-03 06:30:00,
2013-02-03 01:31:00,54.6,49.9,30.02,East,84,0.0,0.0,84,0.00,,,0.00,Wunderground PWS Mod,2013-02-03 06:31:00,
2013-02-03 01:36:00,54.7,50.0,30.02,East,84,0.0,0.0,84,0.00,,,0.00,Wunderground PWS Mod,2013-02-03 06:36:00,
2013-02-03 01:41:00,55.1,50.4,30.02,East,84,0.0,0.0,84,0.00,,,0.00,Wunderground PWS Mod,2013-02-03 06:41:00,
2013-02-03 01:46:00,55.2,50.8,30.02,East,84,0.0,0.0,85,0.00,,,0.00,Wunderground PWS Mod,2013-02-03 06:46:00,
2013-02-03 01:50:00,55.7,51.6,30.02,N/A,-737280,0.0,0.0,86,0.00,,,0.00,Wunderground PWS Mod,2013-02-03 06:50:00,
2013-02-03 01:51:00,55.6,51.5,30.02,East,84,0.0,0.0,86,0.00,,,0.00,Wunderground PWS Mod,2013-02-03 06:51:00,
2013-02-03 02:01:00,55.7,51.6,30.02,East,84,0.0,0.0,86,0.00,,,0.00,Wunderground PWS Mod,2013-02-03 07:01:00,
2013-02-03 02:10:00,55.4,51.3,30.02,N/A,-737280,0.0,0.0,86,0.00,,,0.00,Wunderground PWS Mod,2013-02-03 07:10:00,
2013-02-03 02:11:00,55.5,51.4,30.02,East,84,0.0,0.0,86,0.00,,,0.00,Wunderground PWS Mod,2013-02-03 07:11:00,
2013-02-03 02:16:00,55.3,51.2,30.02,East,84,0.0,0.0,86,0.00,,,0.00,Wunderground PWS Mod,2013-02-03 07:16:00,
2013-02-03 02:21:00,55.6,51.5,30.01,East,84,0.0,0.0,86,0.00,,,0.00,Wunderground PWS Mod,2013-02-03 07:21:00,
2013-02-03 02:26:00,55.6,51.5,30.01,East,84,0.0,0.0,86,0.00,,,0.00,Wunderground PWS Mod,2013-02-03 07:26:00,
2013-02-03 02:36:00,55.5,51.1,30.01,East,84,0.0,0.0,85,0.00,,,0.00,Wunderground PWS Mod,2013-02-03 07:36:00,
2013-02-03 02:40:00,55.6,51.2,30.01,N/A,-737280,0.0,0.0,85,0.00,,,0.00,Wunderground PWS Mod,2013-02-03 07:40:00,
2013-02-03 02:41:00,55.6,51.2,30.01,East,84,0.0,0.0,85,0.00,,,0.00,Wunderground PWS Mod,2013-02-03 07:41:00,
2013-02-03 02:46:00,55.4,51.0,30.01,East,84,0.0,0.0,85,0.00,,,0.00,Wunderground PWS Mod,2013-02-03 07:46:00,
2013-02-03 02:51:00,55.4,51.0,30.00,East,84,0.0,0.0,85,0.00,,,0.00,Wunderground PWS Mod,2013-02-03 07:51:00,
2013-02-03 02:56:00,55.5,51.1,30.00,East,84,0.0,0.0,85,0.00,,,0.00,Wunderground PWS Mod,2013-02-03 07:56:00,
2013-02-03 03:01:00,55.5,51.1,30.00,East,84,0.0,0.0,85,0.00,,,0.00,Wunderground PWS Mod,2013-02-03 08:01:00,
2013-02-03 03:10:00,55.6,50.8,30.00,N/A,-737280,0.0,0.0,84,0.00,,,0.00,Wunderground PWS Mod,2013-02-03 08:10:00,
2013-02-03 03:11:00,55.6,50.8,30.00,East,84,0.0,0.0,84,0.00,,,0.00,Wunderground PWS Mod,2013-02-03 08:11:00,
2013-02-03 03:16:00,55.6,50.8,30.00,East,84,0.0,0.0,84,0.00,,,0.00,Wunderground PWS Mod,2013-02-03 08:16:00,
2013-02-03 03:21:00,55.6,50.8,30.00,East,84,0.0,0.0,84,0.00,,,0.00,Wunderground PWS Mod,2013-02-03 08:21:00,
2013-02-03 03:26:00,55.3,50.5,30.00,East,84,0.0,0.0,84,0.00,,,0.00,Wunderground PWS Mod,2013-02-03 08:26:00,
2013-02-03 03:36:00,55.3,50.5,30.00,East,84,0.0,0.0,84,0.00,,,0.00,Wunderground PWS Mod,2013-02-03 08:36:00,
2013-02-03 03:40:00,55.2,50.4,30.00,N/A,-737280,0.0,0.0,84,0.00,,,0.00,Wunderground PWS Mod,2013-02-03 08:40:00,
2013-02-03 03:41:00,55.2,50.4,30.00,East,84,0.0,0.0,84,0.00,,,0.00,Wunderground PWS Mod,2013-02-03 08:41:00,
2013-02-03 03:46:00,55.1,50.4,30.00,East,84,0.0,0.0,84,0.00,,,0.00,Wunderground PWS Mod,2013-02-03 08:46:00,
2013-02-03 03:56:00,55.5,51.1,30.00,East,84,0.0,0.0,85,0.00,,,0.00,Wunderground PWS Mod,2013-02-03 08:56:00,
2013-02-03 04:01:00,55.4,50.6,30.00,East,84,0.0,0.0,84,0.00,,,0.00,Wunderground PWS Mod,2013-02-03 09:01:00,
2013-02-03 04:06:00,55.4,50.6,30.00,N/A,-737280,0.0,0.0,84,0.00,,,0.00,Wunderground PWS Mod,2013-02-03 09:06:00,
2013-02-03 04:16:00,55.2,50.4,30.00,East,84,0.0,0.0,84,0.00,,,0.00,Wunderground PWS Mod,2013-02-03 09:16:00,
2013-02-03 04:20:00,55.1,50.4,30.00,N/A,-737280,0.0,0.0,84,0.00,,,0.00,Wunderground PWS Mod,2013-02-03 09:20:00,
2013-02-03 04:21:00,55.1,50.4,30.00,East,84,0.0,0.0,84,0.00,,,0.00,Wunderground PWS Mod,2013-02-03 09:21:00,
2013-02-03 04:26:00,55.2,50.4,30.00,East,84,0.0,0.0,84,0.00,,,0.00,Wunderground PWS Mod,2013-02-03 09:26:00,
2013-02-03 04:31:00,55.1,50.4,30.00,East,84,0.0,0.0,84,0.00,,,0.00,Wunderground PWS Mod,2013-02-03 09:31:00,
2013-02-03 04:40:00,54.8,50.4,30.00,N/A,-737280,0.0,0.0,85,0.00,,,0.00,Wunderground PWS Mod,2013-02-03 09:40:00,
2013-02-03 04:41:00,54.8,50.4,30.00,East,84,0.0,0.0,85,0.00,,,0.00,Wunderground PWS Mod,2013-02-03 09:41:00,
2013-02-03 04:46:00,54.7,50.3,30.00,East,84,0.0,0.0,85,0.00,,,0.00,Wunderground PWS Mod,2013-02-03 09:46:00,
2013-02-03 04:56:00,55.0,50.6,30.00,East,84,0.0,0.0,85,0.00,,,0.00,Wunderground PWS Mod,2013-02-03 09:56:00,
2013-02-03 05:01:00,55.3,50.9,30.00,East,84,0.0,0.0,85,0.00,,,0.00,Wunderground PWS Mod,2013-02-03 10:01:00,
2013-02-03 05:06:00,55.3,50.9,30.00,N/A,-737280,0.0,0.0,85,0.00,,,0.00,Wunderground PWS Mod,2013-02-03 10:06:00,
2013-02-03 05:16:00,55.9,51.1,30.00,WNW,303,1.0,1.0,84,0.00,,,0.00,Wunderground PWS Mod,2013-02-03 10:16:00,
2013-02-03 05:20:00,56.1,51.0,30.01,WNW,293,2.0,5.0,83,0.00,,,0.00,Wunderground PWS Mod,2013-02-03 10:20:00,
2013-02-03 05:21:00,56.1,51.0,30.02,NW,309,3.0,3.0,83,0.00,,,0.00,Wunderground PWS Mod,2013-02-03 10:21:00,
2013-02-03 05:26:00,56.1,51.0,30.02,NW,304,2.0,2.0,83,0.00,,,0.00,Wunderground PWS Mod,2013-02-03 10:26:00,
2013-02-03 05:31:00,55.9,50.5,30.02,NW,305,1.0,1.0,82,0.00,,,0.00,Wunderground PWS Mod,2013-02-03 10:31:00,
2013-02-03 05:36:00,55.8,50.4,30.02,NW,306,0.0,0.0,82,0.00,,,0.00,Wunderground PWS Mod,2013-02-03 10:36:00,
2013-02-03 05:40:00,55.6,50.2,30.02,NW,315,1.0,4.0,82,0.00,,,0.00,Wunderground PWS Mod,2013-02-03 10:40:00,
2013-02-03 05:41:00,55.7,50.3,30.02,NW,306,0.0,2.0,82,0.00,,,0.00,Wunderground PWS Mod,2013-02-03 10:41:00,
2013-02-03 05:46:00,55.6,50.2,30.02,NW,307,0.0,2.0,82,0.00,,,0.00,Wunderground PWS Mod,2013-02-03 10:46:00,
2013-02-03 05:56:00,55.6,50.2,30.02,NW,307,0.0,1.0,82,0.00,,,0.00,Wunderground PWS Mod,2013-02-03 10:56:00,
2013-02-03 06:01:00,55.7,50.3,30.02,NW,326,1.0,1.0,82,0.00,,,0.00,Wunderground PWS Mod,2013-02-03 11:01:00,
2013-02-03 06:06:00,55.7,50.3,30.03,NW,315,1.0,6.0,82,0.00,,,0.00,Wunderground PWS Mod,2013-02-03 11:06:00,
2013-02-03 06:16:00,55.6,50.2,30.03,NW,325,1.0,1.0,82,0.00,,,0.00,Wunderground PWS Mod,2013-02-03 11:16:00,
2013-02-03 06:20:00,55.5,50.1,30.03,NW,315,1.0,5.0,82,0.00,,,0.00,Wunderground PWS Mod,2013-02-03 11:20:00,
2013-02-03 06:21:00,55.6,50.2,30.03,NW,325,0.0,0.0,82,0.00,,,0.00,Wunderground PWS Mod,2013-02-03 11:21:00,
2013-02-03 06:31:00,55.5,50.1,30.03,NW,325,0.0,1.0,82,0.00,,,0.00,Wunderground PWS Mod,2013-02-03 11:31:00,
2013-02-03 06:36:00,55.4,49.7,30.03,NW,325,0.0,1.0,81,0.00,,,0.00,Wunderground PWS Mod,2013-02-03 11:36:00,
2013-02-03 06:46:00,55.3,49.6,30.03,NW,325,0.0,6.0,81,0.00,,,0.00,Wunderground PWS Mod,2013-02-03 11:46:00,
2013-02-03 06:50:00,55.3,49.6,30.04,NW,315,0.0,3.0,81,0.00,,,0.00,Wunderground PWS Mod,2013-02-03 11:50:00,
2013-02-03 06:51:00,55.3,49.6,30.04,NW,325,0.0,1.0,81,0.00,,,0.00,Wunderground PWS Mod,2013-02-03 11:51:00,
2013-02-03 06:56:00,55.3,49.6,30.04,NW,325,0.0,1.0,81,0.00,,,0.00,Wunderground PWS Mod,2013-02-03 11:56:00,
2013-02-03 07:01:00,55.2,49.5,30.04,NW,325,0.0,3.0,81,0.00,,,0.00,Wunderground PWS Mod,2013-02-03 12:01:00,
2013-02-03 07:10:00,55.3,49.6,30.05,N/A,-737280,0.0,0.0,81,0.00,,,0.00,Wunderground PWS Mod,2013-02-03 12:10:00,
2013-02-03 07:11:00,55.4,49.7,30.05,NW,325,0.0,0.0,81,0.00,,,0.00,Wunderground PWS Mod,2013-02-03 12:11:00,
2013-02-03 07:16:00,55.2,49.5,30.05,NW,325,0.0,0.0,81,0.00,,,0.00,Wunderground PWS Mod,2013-02-03 12:16:00,
2013-02-03 07:21:00,55.2,49.5,30.05,NW,325,0.0,2.0,81,0.00,,,0.00,Wunderground PWS Mod,2013-02-03 12:21:00,
2013-02-03 07:26:00,55.2,49.5,30.05,NW,325,0.0,2.0,81,0.00,,,0.00,Wunderground PWS Mod,2013-02-03 12:26:00,
2013-02-03 07:30:00,55.5,49.4,30.06,NW,315,1.0,4.0,80,0.00,,,0.00,Wunderground PWS Mod,2013-02-03 12:30:00,
2013-02-03 07:31:00,55.4,49.7,30.05,NW,325,0.0,4.0,81,0.00,,,0.00,Wunderground PWS Mod,2013-02-03 12:31:00,
2013-02-03 07:36:00,55.7,49.6,30.06,NW,325,0.0,3.0,80,0.00,,,0.00,Wunderground PWS Mod,2013-02-03 12:36:00,
2013-02-03 07:46:00,56.3,49.5,30.06,NW,321,0.0,0.0,78,0.00,,,0.00,Wunderground PWS Mod,2013-02-03 12:46:00,
2013-02-03 07:50:00,56.7,49.2,30.06,NW,315,1.0,5.0,76,0.00,,,0.00,Wunderground PWS Mod,2013-02-03 12:50:00,
2013-02-03 07:51:00,56.6,49.5,30.06,NW,321,0.0,3.0,77,0.00,,,0.00,Wunderground PWS Mod,2013-02-03 12:51:00,
2013-02-03 07:56:00,57.1,49.2,30.06,NW,321,1.0,1.0,75,0.00,,,0.00,Wunderground PWS Mod,2013-02-03 12:56:00,
2013-02-03 08:01:00,57.7,49.1,30.06,NW,323,1.0,7.0,73,0.00,,,0.00,Wunderground PWS Mod,2013-02-03 13:01:00,
2013-02-03 08:11:00,58.7,48.9,30.06,NW,324,1.0,1.0,70,0.00,,,0.00,Wunderground PWS Mod,2013-02-03 13:11:00,
2013-02-03 08:16:00,59.3,49.1,30.06,NW,319,1.0,1.0,69,0.00,,,0.00,Wunderground PWS Mod,2013-02-03 13:16:00,
2013-02-03 08:20:00,59.9,49.3,30.07,NW,315,2.0,4.0,68,0.00,,,0.00,Wunderground PWS Mod,2013-02-03 13:20:00,
2013-02-03 08:21:00,59.8,49.2,30.07,NW,307,1.0,1.0,68,0.00,,,0.00,Wunderground PWS Mod,2013-02-03 13:21:00,
2013-02-03 08:26:00,60.6,49.6,30.07,NW,324,1.0,9.0,67,0.00,,,0.00,Wunderground PWS Mod,2013-02-03 13:26:00,
2013-02-03 08:31:00,61.0,49.1,30.07,NNW,330,2.0,5.0,65,0.00,,,0.00,Wunderground PWS Mod,2013-02-03 13:31:00,
2013-02-03 08:36:00,61.6,49.3,30.08,NW,323,2.0,2.0,64,0.00,,,0.00,Wunderground PWS Mod,2013-02-03 13:36:00,
2013-02-03 08:50:00,62.8,48.7,30.08,NW,315,5.0,8.0,60,0.00,,,0.00,Wunderground PWS Mod,2013-02-03 13:50:00,
2013-02-03 08:51:00,62.8,49.1,30.08,NW,326,3.0,9.0,61,0.00,,,0.00,Wunderground PWS Mod,2013-02-03 13:51:00,
2013-02-03 08:56:00,62.9,48.8,30.08,NW,324,2.0,2.0,60,0.00,,,0.00,Wunderground PWS Mod,2013-02-03 13:56:00,
2013-02-03 09:01:00,63.1,48.1,30.08,NNW,334,3.0,3.0,58,0.00,,,0.00,Wunderground PWS Mod,2013-02-03 14:01:00,
2013-02-03 09:11:00,64.0,48.9,30.09,NNW,342,2.0,2.0,58,0.00,,,0.00,Wunderground PWS Mod,2013-02-03 14:11:00,
2013-02-03 09:16:00,64.6,49.0,30.09,NW,315,2.0,5.0,57,0.00,,,0.00,Wunderground PWS Mod,2013-02-03 14:16:00,
2013-02-03 09:20:00,65.3,49.2,30.09,NW,315,1.0,4.0,56,0.00,,,0.00,Wunderground PWS Mod,2013-02-03 14:20:00,
2013-02-03 09:21:00,65.2,49.6,30.09,NNW,330,1.0,1.0,57,0.00,,,0.00,Wunderground PWS Mod,2013-02-03 14:21:00,
2013-02-03 09:26:00,65.8,49.7,30.09,NW,316,1.0,5.0,56,0.00,,,0.00,Wunderground PWS Mod,2013-02-03 14:26:00,
2013-02-03 09:31:00,66.2,49.1,30.09,NNW,339,1.0,5.0,54,0.00,,,0.00,Wunderground PWS Mod,2013-02-03 14:31:00,
2013-02-03 09:36:00,66.7,49.5,30.09,WNW,299,2.0,5.0,54,0.00,,,0.00,Wunderground PWS Mod,2013-02-03 14:36:00,
2013-02-03 09:46:00,67.4,49.7,30.09,NNW,328,2.0,9.0,53,0.00,,,0.00,Wunderground PWS Mod,2013-02-03 14:46:00,
2013-02-03 09:50:00,67.6,49.3,30.09,NW,315,5.0,11.0,52,0.00,,,0.00,Wunderground PWS Mod,2013-02-03 14:50:00,
2013-02-03 09:51:00,67.5,49.8,30.09,WNW,292,4.0,7.0,53,0.00,,,0.00,Wunderground PWS Mod,2013-02-03 14:51:00,
2013-02-03 09:56:00,67.8,50.0,30.09,NW,323,5.0,5.0,53,0.00,,,0.00,Wunderground PWS Mod,2013-02-03 14:56:00,
2013-02-03 10:01:00,68.2,50.4,30.09,NW,308,4.0,7.0,53,0.00,,,0.00,Wunderground PWS Mod,2013-02-03 15:01:00,
2013-02-03 10:06:00,68.4,50.1,30.10,NW,313,4.0,4.0,52,0.00,,,0.00,Wunderground PWS Mod,2013-02-03 15:06:00,
2013-02-03 10:16:00,69.0,50.6,30.10,WNW,302,5.0,13.0,52,0.00,,,0.00,Wunderground PWS Mod,2013-02-03 15:16:00,
2013-02-03 10:20:00,69.1,51.2,30.10,NW,315,4.0,6.0,53,0.00,,,0.00,Wunderground PWS Mod,2013-02-03 15:20:00,
2013-02-03 10:21:00,69.0,50.6,30.10,NW,316,4.0,7.0,52,0.00,,,0.00,Wunderground PWS Mod,2013-02-03 15:21:00,
2013-02-03 10:26:00,69.2,50.8,30.10,NNW,346,5.0,5.0,52,0.00,,,0.00,Wunderground PWS Mod,2013-02-03 15:26:00,
2013-02-03 10:31:00,69.2,50.8,30.10,NNW,327,5.0,5.0,52,0.00,,,0.00,Wunderground PWS Mod,2013-02-03 15:31:00,
2013-02-03 10:36:00,69.4,51.5,30.09,North,358,4.0,7.0,53,0.00,,,0.00,Wunderground PWS Mod,2013-02-03 15:36:00,
2013-02-03 10:40:00,69.9,51.5,30.09,NNW,338,5.0,10.0,52,0.00,,,0.00,Wunderground PWS Mod,2013-02-03 15:40:00,
2013-02-03 10:41:00,69.8,51.4,30.09,NW,326,5.0,10.0,52,0.00,,,0.00,Wunderground PWS Mod,2013-02-03 15:41:00,
2013-02-03 10:46:00,70.1,51.7,30.09,North,356,4.0,10.0,52,0.00,,,0.00,Wunderground PWS Mod,2013-02-03 15:46:00,
2013-02-03 10:56:00,70.4,51.4,30.09,NNW,344,3.0,3.0,51,0.00,,,0.00,Wunderground PWS Mod,2013-02-03 15:56:00,
2013-02-03 11:01:00,71.2,51.6,30.09,NNW,336,3.0,3.0,50,0.00,,,0.00,Wunderground PWS Mod,2013-02-03 16:01:00,
2013-02-03 11:06:00,71.2,52.1,30.08,NNW,338,4.0,7.0,51,0.00,,,0.00,Wunderground PWS Mod,2013-02-03 16:06:00,
2013-02-03 11:16:00,71.7,52.1,30.08,WNW,291,4.0,10.0,50,0.00,,,0.00,Wunderground PWS Mod,2013-02-03 16:16:00,
2013-02-03 11:20:00,72.6,52.9,30.08,WNW,293,4.0,5.0,50,0.00,,,0.00,Wunderground PWS Mod,2013-02-03 16:20:00,
2013-02-03 11:21:00,72.5,52.8,30.08,NW,306,3.0,10.0,50,0.00,,,0.00,Wunderground PWS Mod,2013-02-03 16:21:00,
2013-02-03 11:26:00,72.7,52.4,30.08,NNW,340,3.0,10.0,49,0.00,,,0.00,Wunderground PWS Mod,2013-02-03 16:26:00,
2013-02-03 11:31:00,72.6,51.8,30.08,NNW,332,3.0,9.0,48,0.00,,,0.00,Wunderground PWS Mod,2013-02-03 16:31:00,
2013-02-03 11:36:00,72.6,51.8,30.07,NNW,342,3.0,9.0,48,0.00,,,0.00,Wunderground PWS Mod,2013-02-03 16:36:00,
2013-02-03 11:46:00,72.7,50.1,30.07,NW,325,5.0,11.0,45,0.00,,,0.00,Wunderground PWS Mod,2013-02-03 16:46:00,
2013-02-03 11:50:00,73.1,50.5,30.06,WNW,293,5.0,10.0,45,0.00,,,0.00,Wunderground PWS Mod,2013-02-03 16:50:00,
2013-02-03 11:51:00,72.8,50.2,30.06,WNW,297,5.0,5.0,45,0.00,,,0.00,Wunderground PWS Mod,2013-02-03 16:51:00,
2013-02-03 12:01:00,73.4,50.2,30.06,NNW,347,3.0,3.0,44,0.00,,,0.00,Wunderground PWS Mod,2013-02-03 17:01:00,
2013-02-03 12:06:00,73.7,49.2,30.06,NW,309,3.0,9.0,42,0.00,,,0.00,Wunderground PWS Mod,2013-02-03 17:06:00,
2013-02-03 12:16:00,74.1,49.5,30.06,NNW,340,3.0,6.0,42,0.00,,,0.00,Wunderground PWS Mod,2013-02-03 17:16:00,
2013-02-03 12:20:00,73.9,49.4,30.06,NNW,338,4.0,11.0,42,0.00,,,0.00,Wunderground PWS Mod,2013-02-03 17:20:00,
2013-02-03 12:21:00,73.8,49.3,30.06,NW,321,4.0,13.0,42,0.00,,,0.00,Wunderground PWS Mod,2013-02-03 17:21:00,
2013-02-03 12:26:00,73.6,49.1,30.06,North,4,6.0,6.0,42,0.00,,,0.00,Wunderground PWS Mod,2013-02-03 17:26:00,
2013-02-03 12:36:00,73.8,49.9,30.05,NW,319,4.0,4.0,43,0.00,,,0.00,Wunderground PWS Mod,2013-02-03 17:36:00,
2013-02-03 12:40:00,74.0,49.4,30.05,NNW,338,1.0,2.0,42,0.00,,,0.00,Wunderground PWS Mod,2013-02-03 17:40:00,
2013-02-03 12:41:00,73.9,49.4,30.05,North,352,4.0,4.0,42,0.00,,,0.00,Wunderground PWS Mod,2013-02-03 17:41:00,
2013-02-03 12:51:00,73.9,48.7,30.05,NNW,328,3.0,3.0,41,0.00,,,0.00,Wunderground PWS Mod,2013-02-03 17:51:00,
2013-02-03 12:56:00,74.6,48.7,30.05,North,0,3.0,3.0,40,0.00,,,0.00,Wunderground PWS Mod,2013-02-03 17:56:00,
2013-02-03 13:01:00,74.3,48.4,30.05,North,1,2.0,2.0,40,0.00,,,0.00,Wunderground PWS Mod,2013-02-03 18:01:00,
2013-02-03 13:10:00,74.0,47.5,30.04,North,0,1.0,3.0,39,0.00,,,0.00,Wunderground PWS Mod,2013-02-03 18:10:00,
2013-02-03 13:11:00,74.0,46.8,30.04,NNE,18,4.0,4.0,38,0.00,,,0.00,Wunderground PWS Mod,2013-02-03 18:11:00,
2013-02-03 13:16:00,74.4,47.1,30.04,NNW,334,3.0,9.0,38,0.00,,,0.00,Wunderground PWS Mod,2013-02-03 18:16:00,
2013-02-03 13:21:00,74.6,47.3,30.03,NNW,341,2.0,2.0,38,0.00,,,0.00,Wunderground PWS Mod,2013-02-03 18:21:00,
2013-02-03 13:26:00,74.4,47.1,30.03,NNE,25,3.0,6.0,38,0.00,,,0.00,Wunderground PWS Mod,2013-02-03 18:26:00,
2013-02-03 13:36:00,75.4,46.6,30.02,NNW,339,2.0,2.0,36,0.00,,,0.00,Wunderground PWS Mod,2013-02-03 18:36:00,
2013-02-03 13:40:00,75.3,45.7,30.02,NNW,338,0.0,1.0,35,0.00,,,0.00,Wunderground PWS Mod,2013-02-03 18:40:00,
2013-02-03 13:41:00,75.3,46.5,30.02,NNW,333,1.0,1.0,36,0.00,,,0.00,Wunderground PWS Mod,2013-02-03 18:41:00,
2013-02-03 13:51:00,74.5,46.5,30.02,North,1,2.0,2.0,37,0.00,,,0.00,Wunderground PWS Mod,2013-02-03 18:51:00,
2013-02-03 13:56:00,74.8,48.2,30.02,North,359,1.0,1.0,39,0.00,,,0.00,Wunderground PWS Mod,2013-02-03 18:56:00,
2013-02-03 14:06:00,74.6,47.3,30.02,NNE,23,3.0,11.0,38,0.00,,,0.00,Wunderground PWS Mod,2013-02-03 19:06:00,
2013-02-03 14:11:00,74.4,47.8,30.02,NNE,23,11.0,14.0,39,0.00,,,0.00,Wunderground PWS Mod,2013-02-03 19:11:00,
2013-02-03 14:16:00,73.6,49.1,30.02,NNE,25,9.0,18.0,42,0.00,,,0.00,Wunderground PWS Mod,2013-02-03 19:16:00,
2013-02-03 14:26:00,73.5,49.6,30.01,NNE,15,10.0,10.0,43,0.00,,,0.00,Wunderground PWS Mod,2013-02-03 19:26:00,
2013-02-03 14:30:00,72.8,48.4,30.01,NNE,23,8.0,12.0,42,0.00,,,0.00,Wunderground PWS Mod,2013-02-03 19:30:00,
2013-02-03 14:31:00,72.8,48.4,30.01,NNE,19,10.0,15.0,42,0.00,,,0.00,Wunderground PWS Mod,2013-02-03 19:31:00,
2013-02-03 14:36:00,72.3,48.5,30.01,North,0,10.0,10.0,43,0.00,,,0.00,Wunderground PWS Mod,2013-02-03 19:36:00,
2013-02-03 14:41:00,72.0,47.6,30.01,North,6,10.0,15.0,42,0.00,,,0.00,Wunderground PWS Mod,2013-02-03 19:41:00,
2013-02-03 14:46:00,72.0,47.6,30.01,NE,44,11.0,15.0,42,0.00,,,0.00,Wunderground PWS Mod,2013-02-03 19:46:00,
2013-02-03 14:56:00,72.2,47.2,30.01,NNE,14,10.0,11.0,41,0.00,,,0.00,Wunderground PWS Mod,2013-02-03 19:56:00,
2013-02-03 15:01:00,72.2,48.5,30.01,ENE,63,11.0,16.0,43,0.00,,,0.00,Wunderground PWS Mod,2013-02-03 20:01:00,
2013-02-03 15:06:00,72.0,48.3,30.01,North,0,10.0,14.0,43,0.00,,,0.00,Wunderground PWS Mod,2013-02-03 20:06:00,
2013-02-03 15:10:00,71.8,45.5,30.01,NNE,23,10.0,13.0,39,0.00,,,0.00,Wunderground PWS Mod,2013-02-03 20:10:00,
2013-02-03 15:11:00,72.0,45.7,30.01,NNE,28,10.0,11.0,39,0.00,,,0.00,Wunderground PWS Mod,2013-02-03 20:11:00,
2013-02-03 15:16:00,71.5,45.2,30.01,North,2,11.0,13.0,39,0.00,,,0.00,Wunderground PWS Mod,2013-02-03 20:16:00,
2013-02-03 15:26:00,71.0,44.8,30.01,North,4,10.0,12.0,39,0.00,,,0.00,Wunderground PWS Mod,2013-02-03 20:26:00,
2013-02-03 15:30:00,70.8,43.9,30.01,NNE,23,11.0,16.0,38,0.00,,,0.00,Wunderground PWS Mod,2013-02-03 20:30:00,
2013-02-03 15:31:00,70.8,43.2,30.01,NNE,31,11.0,15.0,37,0.00,,,0.00,Wunderground PWS Mod,2013-02-03 20:31:00,
2013-02-03 15:36:00,71.0,46.1,30.01,NNE,20,11.0,15.0,41,0.00,,,0.00,Wunderground PWS Mod,2013-02-03 20:36:00,
2013-02-03 15:41:00,70.9,42.6,30.01,NNE,27,11.0,16.0,36,0.00,,,0.00,Wunderground PWS Mod,2013-02-03 20:41:00,
2013-02-03 15:46:00,70.7,44.5,30.01,NNE,13,11.0,11.0,39,0.00,,,0.00,Wunderground PWS Mod,2013-02-03 20:46:00,
2013-02-03 15:56:00,70.6,44.4,30.01,NNE,13,7.0,7.0,39,0.00,,,0.00,Wunderground PWS Mod,2013-02-03 20:56:00,
2013-02-03 16:06:00,70.0,43.2,30.01,NNE,17,8.0,12.0,38,0.00,,,0.00,Wunderground PWS Mod,2013-02-03 21:06:00,
2013-02-03 16:16:00,69.0,42.3,30.01,NNE,30,8.0,8.0,38,0.00,,,0.00,Wunderground PWS Mod,2013-02-03 21:16:00,
2013-02-03 16:20:00,69.1,43.1,30.01,North,0,7.0,10.0,39,0.00,,,0.00,Wunderground PWS Mod,2013-02-03 21:20:00,
2013-02-03 16:21:00,69.1,43.8,30.01,NNE,14,7.0,7.0,40,0.00,,,0.00,Wunderground PWS Mod,2013-02-03 21:21:00,
2013-02-03 16:26:00,69.1,43.8,30.01,NNE,23,7.0,7.0,40,0.00,,,0.00,Wunderground PWS Mod,2013-02-03 21:26:00,
2013-02-03 16:31:00,69.1,42.4,30.01,North,4,6.0,6.0,38,0.00,,,0.00,Wunderground PWS Mod,2013-02-03 21:31:00,
2013-02-03 16:36:00,68.8,42.1,30.01,NNE,17,6.0,12.0,38,0.00,,,0.00,Wunderground PWS Mod,2013-02-03 21:36:00,
2013-02-03 16:40:00,68.4,41.1,30.01,North,0,7.0,13.0,37,0.00,,,0.00,Wunderground PWS Mod,2013-02-03 21:40:00,
2013-02-03 16:41:00,68.4,41.1,30.01,NNE,22,7.0,7.0,37,0.00,,,0.00,Wunderground PWS Mod,2013-02-03 21:41:00,
2013-02-03 16:51:00,68.0,40.7,30.01,NNE,25,6.0,6.0,37,0.00,,,0.00,Wunderground PWS Mod,2013-02-03 21:51:00,
2013-02-03 16:56:00,68.0,40.0,30.01,NNE,25,5.0,7.0,36,0.00,,,0.00,Wunderground PWS Mod,2013-02-03 21:56:00,
2013-02-03 17:01:00,67.8,40.6,30.01,NNE,21,6.0,6.0,37,0.00,,,0.00,Wunderground PWS Mod,2013-02-03 22:01:00,
2013-02-03 17:06:00,67.8,40.6,30.01,NNE,23,6.0,9.0,37,0.00,,,0.00,Wunderground PWS Mod,2013-02-03 22:06:00,
2013-02-03 17:16:00,67.6,41.7,30.01,NNE,18,1.0,1.0,39,0.00,,,0.00,Wunderground PWS Mod,2013-02-03 22:16:00,
2013-02-03 17:20:00,67.4,42.9,30.01,NNE,23,0.0,1.0,41,0.00,,,0.00,Wunderground PWS Mod,2013-02-03 22:20:00,
2013-02-03 17:21:00,67.4,42.2,30.02,NNE,18,0.0,2.0,40,0.00,,,0.00,Wunderground PWS Mod,2013-02-03 22:21:00,
2013-02-03 17:26:00,67.3,42.8,30.02,North,8,0.0,2.0,41,0.00,,,0.00,Wunderground PWS Mod,2013-02-03 22:26:00,
2013-02-03 17:31:00,67.2,43.3,30.02,North,9,0.0,1.0,42,0.00,,,0.00,Wunderground PWS Mod,2013-02-03 22:31:00,
2013-02-03 17:36:00,66.9,43.7,30.02,NNE,22,0.0,1.0,43,0.00,,,0.00,Wunderground PWS Mod,2013-02-03 22:36:00,
2013-02-03 17:46:00,66.4,43.2,30.02,NNE,15,0.0,2.0,43,0.00,,,0.00,Wunderground PWS Mod,2013-02-03 22:46:00,
2013-02-03 17:50:00,66.2,42.4,30.02,NNE,23,0.0,1.0,42,0.00,,,0.00,Wunderground PWS Mod,2013-02-03 22:50:00,
2013-02-03 17:51:00,66.2,42.4,30.02,NNE,14,0.0,1.0,42,0.00,,,0.00,Wunderground PWS Mod,2013-02-03 22:51:00,
2013-02-03 17:56:00,66.0,42.2,30.02,NNE,14,0.0,1.0,42,0.00,,,0.00,Wunderground PWS Mod,2013-02-03 22:56:00,
2013-02-03 18:01:00,65.8,42.1,30.02,NNE,14,0.0,1.0,42,0.00,,,0.00,Wunderground PWS Mod,2013-02-03 23:01:00,
2013-02-03 18:10:00,64.7,41.7,30.02,N/A,-737280,0.0,0.0,43,0.00,,,0.00,Wunderground PWS Mod,2013-02-03 23:10:00,
2013-02-03 18:11:00,64.7,41.7,30.02,NNE,14,0.0,0.0,43,0.00,,,0.00,Wunderground PWS Mod,2013-02-03 23:11:00,
2013-02-03 18:16:00,64.5,41.5,30.02,NNE,14,0.0,0.0,43,0.00,,,0.00,Wunderground PWS Mod,2013-02-03 23:16:00,
2013-02-03 18:21:00,64.2,41.2,30.01,NNE,14,0.0,0.0,43,0.00,,,0.00,Wunderground PWS Mod,2013-02-03 23:21:00,
2013-02-03 18:26:00,63.9,41.5,30.01,NNE,14,0.0,0.0,44,0.00,,,0.00,Wunderground PWS Mod,2013-02-03 23:26:00,
2013-02-03 18:30:00,63.4,42.2,30.01,N/A,-737280,0.0,0.0,46,0.00,,,0.00,Wunderground PWS Mod,2013-02-03 23:30:00,
2013-02-03 18:31:00,63.6,41.9,30.01,NNE,14,0.0,0.0,45,0.00,,,0.00,Wunderground PWS Mod,2013-02-03 23:31:00,
2013-02-03 18:41:00,62.3,42.3,30.01,NNE,14,0.0,0.0,48,0.00,,,0.00,Wunderground PWS Mod,2013-02-03 23:41:00,
2013-02-03 18:46:00,61.6,42.8,30.01,NNE,14,0.0,0.0,50,0.00,,,0.00,Wunderground PWS Mod,2013-02-03 23:46:00,
2013-02-03 18:50:00,61.1,42.8,30.01,N/A,-737280,0.0,0.0,51,0.00,,,0.00,Wunderground PWS Mod,2013-02-03 23:50:00,
2013-02-03 18:51:00,61.1,42.8,30.01,NNE,14,0.0,0.0,51,0.00,,,0.00,Wunderground PWS Mod,2013-02-03 23:51:00,
2013-02-03 18:56:00,60.8,43.6,30.01,NNE,14,0.0,0.0,53,0.00,,,0.00,Wunderground PWS Mod,2013-02-03 23:56:00,
2013-02-03 19:01:00,60.2,43.5,30.01,NNE,14,0.0,0.0,54,0.00,,,0.00,Wunderground PWS Mod,2013-02-04 00:01:00,
2013-02-03 19:10:00,58.7,44.4,30.01,N/A,-737280,0.0,0.0,59,0.00,,,0.00,Wunderground PWS Mod,2013-02-04 00:10:00,
2013-02-03 19:11:00,58.7,44.0,30.01,NNE,14,0.0,0.0,58,0.00,,,0.00,Wunderground PWS Mod,2013-02-04 00:11:00,
2013-02-03 19:16:00,58.2,44.8,30.01,NNE,14,0.0,0.0,61,0.00,,,0.00,Wunderground PWS Mod,2013-02-04 00:16:00,
2013-02-03 19:21:00,57.9,44.5,30.01,NNE,14,0.0,0.0,61,0.00,,,0.00,Wunderground PWS Mod,2013-02-04 00:21:00,
2013-02-03 19:26:00,57.5,44.6,30.01,NNE,14,0.0,0.0,62,0.00,,,0.00,Wunderground PWS Mod,2013-02-04 00:26:00,
2013-02-03 19:36:00,57.0,44.9,30.01,NNE,14,0.0,0.0,64,0.00,,,0.00,Wunderground PWS Mod,2013-02-04 00:36:00,
2013-02-03 19:46:00,56.6,45.0,30.01,NNE,14,0.0,0.0,65,0.00,,,0.00,Wunderground PWS Mod,2013-02-04 00:46:00,
2013-02-03 19:50:00,56.8,44.7,30.02,N/A,-737280,0.0,0.0,64,0.00,,,0.00,Wunderground PWS Mod,2013-02-04 00:50:00,
2013-02-03 19:51:00,56.8,45.2,30.02,NNE,14,0.0,0.0,65,0.00,,,0.00,Wunderground PWS Mod,2013-02-04 00:51:00,
2013-02-03 19:56:00,56.4,45.2,30.02,NNE,14,0.0,0.0,66,0.00,,,0.00,Wunderground PWS Mod,2013-02-04 00:56:00,
2013-02-03 20:01:00,56.2,45.0,30.02,NNE,14,0.0,0.0,66,0.00,,,0.00,Wunderground PWS Mod,2013-02-04 01:01:00,
2013-02-03 20:10:00,55.8,45.4,30.02,N/A,-737280,0.0,0.0,68,0.00,,,0.00,Wunderground PWS Mod,2013-02-04 01:10:00,
2013-02-03 20:11:00,55.7,45.3,30.02,NNE,14,0.0,0.0,68,0.00,,,0.00,Wunderground PWS Mod,2013-02-04 01:11:00,
2013-02-03 20:16:00,56.0,45.2,30.02,NNE,14,0.0,0.0,67,0.00,,,0.00,Wunderground PWS Mod,2013-02-04 01:16:00,
2013-02-03 20:21:00,56.2,45.0,30.03,NNE,14,0.0,0.0,66,0.00,,,0.00,Wunderground PWS Mod,2013-02-04 01:21:00,
2013-02-03 20:26:00,56.3,45.1,30.03,NNE,14,0.0,0.0,66,0.00,,,0.00,Wunderground PWS Mod,2013-02-04 01:26:00,
2013-02-03 20:36:00,56.2,45.0,30.03,NNE,14,0.0,0.0,66,0.00,,,0.00,Wunderground PWS Mod,2013-02-04 01:36:00,
2013-02-03 20:46:00,56.2,45.0,30.03,NNE,14,0.0,0.0,66,0.00,,,0.00,Wunderground PWS Mod,2013-02-04 01:46:00,
2013-02-03 20:50:00,55.7,45.3,30.03,N/A,-737280,0.0,0.0,68,0.00,,,0.00,Wunderground PWS Mod,2013-02-04 01:50:00,
2013-02-03 20:51:00,55.7,44.9,30.03,NNE,14,0.0,0.0,67,0.00,,,0.00,Wunderground PWS Mod,2013-02-04 01:51:00,
2013-02-03 20:56:00,55.6,45.2,30.03,NNE,14,0.0,0.0,68,0.00,,,0.00,Wunderground PWS Mod,2013-02-04 01:56:00,
2013-02-03 21:01:00,55.3,44.9,30.03,NNE,14,0.0,0.0,68,0.00,,,0.00,Wunderground PWS Mod,2013-02-04 02:01:00,
2013-02-03 21:10:00,55.3,44.9,30.03,N/A,-737280,0.0,0.0,68,0.00,,,0.00,Wunderground PWS Mod,2013-02-04 02:10:00,
2013-02-03 21:11:00,55.2,44.8,30.03,NNE,14,0.0,0.0,68,0.00,,,0.00,Wunderground PWS Mod,2013-02-04 02:11:00,
2013-02-03 21:16:00,55.4,44.6,30.03,NNE,14,0.0,0.0,67,0.00,,,0.00,Wunderground PWS Mod,2013-02-04 02:16:00,
2013-02-03 21:21:00,55.1,44.7,30.03,NNE,14,0.0,0.0,68,0.00,,,0.00,Wunderground PWS Mod,2013-02-04 02:21:00,
2013-02-03 21:30:00,54.6,44.6,30.03,N/A,-737280,0.0,0.0,69,0.00,,,0.00,Wunderground PWS Mod,2013-02-04 02:30:00,
2013-02-03 21:31:00,54.6,44.6,30.03,NNE,14,0.0,0.0,69,0.00,,,0.00,Wunderground PWS Mod,2013-02-04 02:31:00,
2013-02-03 21:36:00,54.6,44.6,30.03,NNE,14,0.0,0.0,69,0.00,,,0.00,Wunderground PWS Mod,2013-02-04 02:36:00,
2013-02-03 21:46:00,54.5,45.3,30.03,NNE,14,0.0,0.0,71,0.00,,,0.00,Wunderground PWS Mod,2013-02-04 02:46:00,
2013-02-03 21:50:00,54.2,45.0,30.03,N/A,-737280,0.0,0.0,71,0.00,,,0.00,Wunderground PWS Mod,2013-02-04 02:50:00,
2013-02-03 21:51:00,54.2,45.0,30.03,NNE,14,0.0,0.0,71,0.00,,,0.00,Wunderground PWS Mod,2013-02-04 02:51:00,
2013-02-03 21:56:00,53.8,45.0,30.03,NNE,14,0.0,0.0,72,0.00,,,0.00,Wunderground PWS Mod,2013-02-04 02:56:00,
2013-02-03 22:01:00,53.5,44.7,30.03,NNE,14,0.0,0.0,72,0.00,,,0.00,Wunderground PWS Mod,2013-02-04 03:01:00,
2013-02-03 22:10:00,53.1,44.7,30.03,N/A,-737280,0.0,0.0,73,0.00,,,0.00,Wunderground PWS Mod,2013-02-04 03:10:00,
2013-02-03 22:11:00,53.1,44.7,30.03,NNE,14,0.0,0.0,73,0.00,,,0.00,Wunderground PWS Mod,2013-02-04 03:11:00,
2013-02-03 22:16:00,53.0,44.6,30.03,NNE,14,0.0,0.0,73,0.00,,,0.00,Wunderground PWS Mod,2013-02-04 03:16:00,
2013-02-03 22:21:00,53.0,44.9,30.03,NNE,14,0.0,0.0,74,0.00,,,0.00,Wunderground PWS Mod,2013-02-04 03:21:00,
2013-02-03 22:31:00,52.8,44.7,30.03,NNE,14,0.0,0.0,74,0.00,,,0.00,Wunderground PWS Mod,2013-02-04 03:31:00,
2013-02-03 22:36:00,52.8,44.7,30.04,NNE,14,0.0,0.0,74,0.00,,,0.00,Wunderground PWS Mod,2013-02-04 03:36:00,
2013-02-03 22:40:00,52.7,44.6,30.04,N/A,-737280,0.0,0.0,74,0.00,,,0.00,Wunderground PWS Mod,2013-02-04 03:40:00,
2013-02-03 22:41:00,52.7,45.0,30.04,NNE,14,0.0,0.0,75,0.00,,,0.00,Wunderground PWS Mod,2013-02-04 03:41:00,
2013-02-03 22:46:00,52.7,44.6,30.04,NNE,14,0.0,0.0,74,0.00,,,0.00,Wunderground PWS Mod,2013-02-04 03:46:00,
2013-02-03 22:51:00,52.7,44.6,30.04,NNE,14,0.0,0.0,74,0.00,,,0.00,Wunderground PWS Mod,2013-02-04 03:51:00,
2013-02-03 22:56:00,52.6,44.9,30.04,NNE,14,0.0,0.0,75,0.00,,,0.00,Wunderground PWS Mod,2013-02-04 03:56:00,
2013-02-03 23:06:00,52.4,44.7,30.04,NNE,14,0.0,0.0,75,0.00,,,0.00,Wunderground PWS Mod,2013-02-04 04:06:00,
2013-02-03 23:11:00,52.4,44.7,30.03,N/A,-737280,0.0,0.0,75,0.00,,,0.00,Wunderground PWS Mod,2013-02-04 04:11:00,
2013-02-03 23:16:00,52.3,44.6,30.04,NNE,14,0.0,0.0,75,0.00,,,0.00,Wunderground PWS Mod,2013-02-04 04:16:00,
2013-02-03 23:26:00,52.3,44.6,30.03,NNE,14,0.0,0.0,75,0.00,,,0.00,Wunderground PWS Mod,2013-02-04 04:26:00,
2013-02-03 23:36:00,52.4,45.1,30.03,NNE,14,0.0,0.0,76,0.00,,,0.00,Wunderground PWS Mod,2013-02-04 04:36:00,
2013-02-03 23:40:00,52.3,45.0,30.03,N/A,-737280,0.0,0.0,76,0.00,,,0.00,Wunderground PWS Mod,2013-02-04 04:40:00,
2013-02-03 23:41:00,52.3,44.6,30.03,NNE,14,0.0,0.0,75,0.00,,,0.00,Wunderground PWS Mod,2013-02-04 04:41:00,
2013-02-03 23:46:00,52.2,44.9,30.03,NNE,14,0.0,0.0,76,0.00,,,0.00,Wunderground PWS Mod,2013-02-04 04:46:00,
2013-02-03 23:51:00,51.9,44.6,30.03,NNE,14,0.0,0.0,76,0.00,,,0.00,Wunderground PWS Mod,2013-02-04 04:51:00,
2013-02-03 23:56:00,51.9,44.6,30.03,NNE,14,0.0,0.0,76,0.00,,,0.00,Wunderground PWS Mod,2013-02-04 04:56:00,